Time,TemperatureF,DewpointF,PressureIn,WindDirection,WindDirectionDegrees,WindSpeedMPH,WindSpeedGustMPH,Humidity,HourlyPrecipIn,Conditions,Clouds,dailyrainin,SolarRadiationWatts/m^2,SoftwareType,DateUTC
2013-08-23 00:00:00,54.6,53.7,30.00,East,96,1.0,2.0,97,0.00,CLR,,0.00,0.0,WeatherDisplay:10.37,2013-08-22 23:00:00,
2013-08-23 00:05:00,54.4,53.6,30.00,East,101,2.0,4.0,97,0.00,CLR,,0.00,0.0,WeatherDisplay:10.37,2013-08-22 23:05:00,
2013-08-23 00:10:00,54.6,53.8,30.00,East,95,2.0,6.0,97,0.00,CLR,,0.00,0.0,WeatherDisplay:10.37,2013-08-22 23:10:00,
2013-08-23 00:15:00,54.6,53.8,30.00,East,90,3.0,6.0,97,0.00,CLR,,0.00,0.0,WeatherDisplay:10.37,2013-08-22 23:15:00,
2013-08-23 00:20:00,54.7,53.9,30.00,East,92,1.0,6.0,97,0.00,CLR,,0.00,0.0,WeatherDisplay:10.37,2013-08-22 23:20:00,
2013-08-23 00:25:00,54.8,54.0,29.99,East,99,2.0,5.0,97,0.00,CLR,,0.00,0.0,WeatherDisplay:10.37,2013-08-22 23:25:00,
2013-08-23 00:30:00,54.7,53.9,29.99,ESE,104,0.0,4.0,97,0.00,CLR,,0.00,0.0,WeatherDisplay:10.37,2013-08-22 23:30:00,
2013-08-23 00:35:00,54.6,53.8,30.00,ESE,103,0.0,1.0,97,0.00,CLR,,0.00,0.0,WeatherDisplay:10.37,2013-08-22 23:35:00,
2013-08-23 00:40:00,54.2,53.4,30.00,ESE,103,0.0,1.0,97,0.00,CLR,,0.00,0.0,WeatherDisplay:10.37,2013-08-22 23:40:00,
2013-08-23 00:50:00,53.5,52.4,30.00,ESE,103,0.0,0.0,96,0.00,CLR,,0.00,0.0,WeatherDisplay:10.37,2013-08-22 23:50:00,
2013-08-23 01:00:00,52.6,51.5,29.99,ESE,103,0.0,0.0,96,0.00,CLR,,0.00,0.0,WeatherDisplay:10.37,2013-08-23 00:00:00,
2013-08-23 01:10:00,51.9,50.8,29.99,ESE,103,0.0,0.0,96,0.00,CLR,,0.00,0.0,WeatherDisplay:10.37,2013-08-23 00:10:00,
2013-08-23 01:20:00,51.5,50.4,29.99,ESE,103,0.0,1.0,96,0.00,CLR,,0.00,0.0,WeatherDisplay:10.37,2013-08-23 00:20:00,
2013-08-23 01:30:00,51.2,50.4,29.99,ESE,103,0.0,1.0,97,0.00,CLR,,0.00,0.0,WeatherDisplay:10.37,2013-08-23 00:30:00,
2013-08-23 01:35:00,51.0,49.9,29.99,ESE,103,0.0,1.0,96,0.00,CLR,,0.00,0.0,WeatherDisplay:10.37,2013-08-23 00:35:00,
2013-08-23 01:40:00,51.0,50.2,29.99,ESE,103,0.0,1.0,97,0.00,CLR,,0.00,0.0,WeatherDisplay:10.37,2013-08-23 00:40:00,
2013-08-23 01:50:00,50.8,50.0,29.99,ESE,103,0.0,0.0,97,0.00,CLR,,0.00,0.0,WeatherDisplay:10.37,2013-08-23 00:50:00,
2013-08-23 01:55:00,50.6,49.8,29.98,ESE,103,0.0,0.0,97,0.00,CLR,,0.00,0.0,WeatherDisplay:10.37,2013-08-23 00:55:00,
2013-08-23 02:05:00,50.4,49.6,29.99,ESE,103,0.0,1.0,97,0.00,CLR,,0.00,0.0,WeatherDisplay:10.37,2013-08-23 01:05:00,
2013-08-23 02:10:00,50.4,49.6,29.98,ESE,103,0.0,1.0,97,0.00,CLR,,0.00,0.0,WeatherDisplay:10.37,2013-08-23 01:10:00,
2013-08-23 02:20:00,50.3,49.5,29.98,ESE,103,0.0,1.0,97,0.00,CLR,,0.00,0.0,WeatherDisplay:10.37,2013-08-23 01:20:00,
2013-08-23 02:25:00,50.3,49.5,29.98,ESE,103,0.0,1.0,97,0.00,CLR,,0.00,0.0,WeatherDisplay:10.37,2013-08-23 01:25:00,
2013-08-23 02:30:00,50.3,49.5,29.98,ESE,103,0.0,1.0,97,0.00,CLR,,0.00,0.0,WeatherDisplay:10.37,2013-08-23 01:30:00,
2013-08-23 02:35:00,50.2,49.4,29.98,ESE,103,0.0,0.0,97,0.00,CLR,,0.00,0.0,WeatherDisplay:10.37,2013-08-23 01:35:00,
2013-08-23 02:40:00,50.1,49.3,29.98,ESE,103,0.0,1.0,97,0.00,CLR,,0.00,0.0,WeatherDisplay:10.37,2013-08-23 01:40:00,
2013-08-23 02:50:00,50.0,49.1,29.98,ESE,103,0.0,0.0,97,0.00,CLR,,0.00,0.0,WeatherDisplay:10.37,2013-08-23 01:50:00,
2013-08-23 02:55:00,49.8,49.0,29.98,ESE,103,0.0,0.0,97,0.00,CLR,,0.00,0.0,WeatherDisplay:10.37,2013-08-23 01:55:00,
2013-08-23 03:00:00,49.7,48.9,29.97,ESE,103,0.0,0.0,97,0.00,CLR,,0.00,0.0,WeatherDisplay:10.37,2013-08-23 02:00:00,
2013-08-23 03:05:00,49.6,48.8,29.97,ESE,103,0.0,0.0,97,0.00,CLR,,0.00,0.0,WeatherDisplay:10.37,2013-08-23 02:05:00,
2013-08-23 03:10:00,49.5,48.7,29.97,ESE,103,0.0,0.0,97,0.00,CLR,,0.00,0.0,WeatherDisplay:10.37,2013-08-23 02:10:00,
2013-08-23 03:20:00,49.0,47.9,29.97,ESE,103,0.0,0.0,96,0.00,CLR,,0.00,0.0,WeatherDisplay:10.37,2013-08-23 02:20:00,
2013-08-23 03:25:00,48.8,48.0,29.97,ESE,103,0.0,0.0,97,0.00,CLR,,0.00,0.0,WeatherDisplay:10.37,2013-08-23 02:25:00,
2013-08-23 03:30:00,48.6,47.5,29.96,ESE,103,0.0,0.0,96,0.00,CLR,,0.00,0.0,WeatherDisplay:10.37,2013-08-23 02:30:00,
2013-08-23 03:35:00,48.4,47.3,29.96,ESE,103,0.0,0.0,96,0.00,CLR,,0.00,0.0,WeatherDisplay:10.37,2013-08-23 02:35:00,
2013-08-23 03:40:00,48.3,47.5,29.96,ESE,103,0.0,1.0,97,0.00,CLR,,0.00,0.0,WeatherDisplay:10.37,2013-08-23 02:40:00,
2013-08-23 03:45:00,48.3,47.5,29.96,ESE,103,0.0,1.0,97,0.00,CLR,,0.00,0.0,WeatherDisplay:10.37,2013-08-23 02:45:00,
2013-08-23 03:50:00,48.2,47.4,29.96,ESE,103,0.0,0.0,97,0.00,CLR,,0.00,0.0,WeatherDisplay:10.37,2013-08-23 02:50:00,
2013-08-23 03:55:00,48.1,47.3,29.96,ESE,103,0.0,0.0,97,0.00,CLR,,0.00,0.0,WeatherDisplay:10.37,2013-08-23 02:55:00,
2013-08-23 04:00:00,48.1,47.3,29.96,ESE,103,0.0,0.0,97,0.00,CLR,,0.00,0.0,WeatherDisplay:10.37,2013-08-23 03:00:00,
2013-08-23 04:05:00,48.0,47.2,29.96,ESE,103,0.0,0.0,97,0.00,CLR,,0.00,0.0,WeatherDisplay:10.37,2013-08-23 03:05:00,
2013-08-23 04:10:00,48.0,47.2,29.96,ESE,103,0.0,1.0,97,0.00,CLR,,0.00,0.0,WeatherDisplay:10.37,2013-08-23 03:10:00,
2013-08-23 04:15:00,48.1,47.3,29.96,ESE,103,1.0,2.0,97,0.00,CLR,,0.00,0.0,WeatherDisplay:10.37,2013-08-23 03:15:00,
2013-08-23 04:20:00,48.2,47.7,29.95,ESE,103,1.0,2.0,98,0.00,CLR,,0.00,0.0,WeatherDisplay:10.37,2013-08-23 03:20:00,
2013-08-23 04:25:00,48.3,47.5,29.95,ESE,103,0.0,2.0,97,0.00,CLR,,0.00,0.0,WeatherDisplay:10.37,2013-08-23 03:25:00,
2013-08-23 04:30:00,48.3,47.5,29.95,ESE,103,0.0,2.0,97,0.00,CLR,,0.00,0.0,WeatherDisplay:10.37,2013-08-23 03:30:00,
2013-08-23 04:35:00,48.4,47.6,29.95,ESE,103,0.0,1.0,97,0.00,CLR,,0.00,0.0,WeatherDisplay:10.37,2013-08-23 03:35:00,
2013-08-23 04:40:00,48.4,47.6,29.95,ESE,103,0.0,0.0,97,0.00,CLR,,0.00,0.0,WeatherDisplay:10.37,2013-08-23 03:40:00,
2013-08-23 04:45:00,48.3,47.5,29.95,ESE,103,0.0,0.0,97,0.00,CLR,,0.00,0.0,WeatherDisplay:10.37,2013-08-23 03:45:00,
2013-08-23 04:50:00,48.2,47.4,29.95,ESE,103,0.0,0.0,97,0.00,CLR,,0.00,0.0,WeatherDisplay:10.37,2013-08-23 03:50:00,
2013-08-23 05:00:00,47.7,46.9,29.94,ESE,103,0.0,0.0,97,0.00,CLR,,0.00,0.0,WeatherDisplay:10.37,2013-08-23 04:00:00,
2013-08-23 05:05:00,47.5,46.7,29.94,ESE,103,0.0,1.0,97,0.00,CLR,,0.00,0.0,WeatherDisplay:10.37,2013-08-23 04:05:00,
2013-08-23 05:10:00,47.3,46.5,29.95,ESE,103,0.0,0.0,97,0.00,CLR,,0.00,0.0,WeatherDisplay:10.37,2013-08-23 04:10:00,
2013-08-23 05:15:00,47.2,46.4,29.94,ESE,103,0.0,1.0,97,0.00,CLR,,0.00,0.0,WeatherDisplay:10.37,2013-08-23 04:15:00,
2013-08-23 05:20:00,47.1,46.3,29.94,ESE,103,0.0,1.0,97,0.00,CLR,,0.00,0.0,WeatherDisplay:10.37,2013-08-23 04:20:00,
2013-08-23 05:25:00,47.0,46.2,29.94,ESE,103,0.0,0.0,97,0.00,CLR,,0.00,0.0,WeatherDisplay:10.37,2013-08-23 04:25:00,
2013-08-23 05:30:00,46.9,46.1,29.94,ESE,103,0.0,0.0,97,0.00,CLR,,0.00,0.0,WeatherDisplay:10.37,2013-08-23 04:30:00,
2013-08-23 05:40:00,47.1,46.3,29.94,ESE,103,0.0,1.0,97,0.00,CLR,,0.00,0.0,WeatherDisplay:10.37,2013-08-23 04:40:00,
2013-08-23 05:45:00,47.2,46.4,29.94,ESE,103,0.0,1.0,97,0.00,CLR,,0.00,0.0,WeatherDisplay:10.37,2013-08-23 04:45:00,
2013-08-23 05:50:00,47.4,46.9,29.94,ESE,103,0.0,1.0,98,0.00,CLR,,0.00,0.0,WeatherDisplay:10.37,2013-08-23 04:50:00,
2013-08-23 05:55:00,47.6,47.0,29.94,ESE,103,0.0,1.0,98,0.00,CLR,,0.00,0.0,WeatherDisplay:10.37,2013-08-23 04:55:00,
2013-08-23 06:00:00,47.8,47.3,29.94,ESE,103,1.0,2.0,98,0.00,OVC,,0.00,5.0,WeatherDisplay:10.37,2013-08-23 05:00:00,
2013-08-23 06:05:00,48.0,47.4,29.94,ESE,103,1.0,2.0,98,0.00,CLR,,0.00,7.0,WeatherDisplay:10.37,2013-08-23 05:05:00,
2013-08-23 06:10:00,48.1,47.6,29.94,ESE,103,0.0,2.0,98,0.00,SCT,,0.00,9.0,WeatherDisplay:10.37,2013-08-23 05:10:00,
2013-08-23 06:15:00,48.1,47.6,29.94,ENE,74,0.0,1.0,98,0.00,SCT,,0.00,12.0,WeatherDisplay:10.37,2013-08-23 05:15:00,
2013-08-23 06:20:00,48.1,47.5,29.94,NNW,327,0.0,0.0,98,0.00,SCT,,0.00,16.0,WeatherDisplay:10.37,2013-08-23 05:20:00,
2013-08-23 06:25:00,48.0,47.5,29.95,NW,324,0.0,1.0,98,0.00,BKN,,0.00,18.0,WeatherDisplay:10.37,2013-08-23 05:25:00,
2013-08-23 06:30:00,48.1,47.5,29.94,SSE,155,0.0,1.0,98,0.00,SCT,,0.00,23.0,WeatherDisplay:10.37,2013-08-23 05:30:00,
2013-08-23 06:35:00,48.1,47.6,29.95,SSE,155,0.0,0.0,98,0.00,SCT,,0.00,28.0,WeatherDisplay:10.37,2013-08-23 05:35:00,
2013-08-23 06:40:00,48.3,47.8,29.95,SSE,155,0.0,0.0,98,0.00,BKN,,0.00,30.0,WeatherDisplay:10.37,2013-08-23 05:40:00,
2013-08-23 06:45:00,48.4,47.9,29.94,SSE,155,0.0,1.0,98,0.00,BKN,,0.00,35.0,WeatherDisplay:10.37,2013-08-23 05:45:00,
2013-08-23 06:55:00,48.7,48.2,29.94,SSE,155,0.0,1.0,98,0.00,SCT,,0.00,53.0,WeatherDisplay:10.37,2013-08-23 05:55:00,
2013-08-23 07:00:00,49.0,48.5,29.94,SSE,155,0.0,1.0,98,0.00,SCT,,0.00,56.0,WeatherDisplay:10.37,2013-08-23 06:00:00,
2013-08-23 07:05:00,49.4,48.8,29.94,SSE,155,0.0,0.0,98,0.00,SCT,,0.00,62.0,WeatherDisplay:10.37,2013-08-23 06:05:00,
2013-08-23 07:15:00,49.9,49.4,29.94,SSE,155,0.0,1.0,98,0.00,SCT,,0.00,67.0,WeatherDisplay:10.37,2013-08-23 06:15:00,
2013-08-23 07:20:00,50.1,49.6,29.94,SSE,155,0.0,0.0,98,0.00,BKN,,0.00,60.0,WeatherDisplay:10.37,2013-08-23 06:20:00,
2013-08-23 07:25:00,50.3,49.8,29.94,SSE,155,0.0,1.0,98,0.00,BKN,,0.00,56.0,WeatherDisplay:10.37,2013-08-23 06:25:00,
2013-08-23 07:30:00,50.6,50.0,29.94,SSE,155,0.0,0.0,98,0.00,BKN,,0.00,70.0,WeatherDisplay:10.37,2013-08-23 06:30:00,
2013-08-23 07:40:00,50.9,50.4,29.94,SSE,155,0.0,0.0,98,0.00,BKN,,0.00,88.0,WeatherDisplay:10.37,2013-08-23 06:40:00,
2013-08-23 07:45:00,51.2,50.7,29.94,SSE,155,0.0,0.0,98,0.00,BKN,,0.00,100.0,WeatherDisplay:10.37,2013-08-23 06:45:00,
2013-08-23 07:50:00,51.5,50.9,29.94,SSE,155,0.0,1.0,98,0.00,SCT,,0.00,123.0,WeatherDisplay:10.37,2013-08-23 06:50:00,
2013-08-23 07:55:00,51.8,51.3,29.93,SSE,155,0.0,0.0,98,0.00,SCT,,0.00,144.0,WeatherDisplay:10.37,2013-08-23 06:55:00,
2013-08-23 08:00:00,52.0,51.5,29.93,SSE,155,0.0,0.0,98,0.00,SCT,,0.00,137.0,WeatherDisplay:10.37,2013-08-23 07:00:00,
2013-08-23 08:05:00,52.3,51.8,29.93,SSE,155,0.0,1.0,98,0.00,SCT,,0.00,128.0,WeatherDisplay:10.37,2013-08-23 07:05:00,
2013-08-23 08:10:00,52.8,52.3,29.93,SSE,155,0.0,2.0,98,0.00,SCT,,0.00,134.0,WeatherDisplay:10.37,2013-08-23 07:10:00,
2013-08-23 08:20:00,53.7,53.2,29.93,SSE,155,0.0,3.0,98,0.00,SCT,,0.00,139.0,WeatherDisplay:10.37,2013-08-23 07:20:00,
2013-08-23 08:30:00,54.1,53.6,29.93,SSE,155,0.0,1.0,98,0.00,SCT,,0.00,165.0,WeatherDisplay:10.37,2013-08-23 07:30:00,
2013-08-23 08:40:00,54.7,54.2,29.93,SSE,155,0.0,2.0,98,0.00,SCT,,0.00,183.0,WeatherDisplay:10.37,2013-08-23 07:40:00,
2013-08-23 08:45:00,55.0,54.4,29.93,SSE,155,0.0,2.0,98,0.00,SCT,,0.00,171.0,WeatherDisplay:10.37,2013-08-23 07:45:00,
2013-08-23 08:50:00,55.3,54.7,29.93,South,185,1.0,3.0,98,0.00,SCT,,0.00,163.0,WeatherDisplay:10.37,2013-08-23 07:50:00,
2013-08-23 09:00:00,55.7,55.1,29.93,West,274,1.0,3.0,98,0.00,BKN,,0.00,162.0,WeatherDisplay:10.37,2013-08-23 08:00:00,
2013-08-23 09:05:00,55.8,55.2,29.93,WNW,286,2.0,5.0,98,0.00,BKN,,0.00,144.0,WeatherDisplay:10.37,2013-08-23 08:05:00,
2013-08-23 09:10:00,55.8,55.2,29.93,WNW,287,0.0,4.0,98,0.00,BKN,,0.00,162.0,WeatherDisplay:10.37,2013-08-23 08:10:00,
2013-08-23 09:15:00,55.8,55.2,29.93,WNW,287,0.0,2.0,98,0.00,BKN,,0.00,167.0,WeatherDisplay:10.37,2013-08-23 08:15:00,
2013-08-23 09:20:00,56.2,55.7,29.93,WNW,287,0.0,2.0,98,0.00,BKN,,0.00,167.0,WeatherDisplay:10.37,2013-08-23 08:20:00,
2013-08-23 09:25:00,56.7,56.1,29.93,WNW,289,2.0,5.0,98,0.00,BKN,,0.00,158.0,WeatherDisplay:10.37,2013-08-23 08:25:00,
2013-08-23 09:35:00,56.8,56.2,29.93,WNW,291,0.0,1.0,98,0.00,BKN,,0.00,179.0,WeatherDisplay:10.37,2013-08-23 08:35:00,
2013-08-23 09:40:00,57.1,56.5,29.93,WNW,291,0.0,1.0,98,0.00,BKN,,0.00,172.0,WeatherDisplay:10.37,2013-08-23 08:40:00,
2013-08-23 09:45:00,57.4,56.8,29.93,WNW,291,0.0,1.0,98,0.00,BKN,,0.00,169.0,WeatherDisplay:10.37,2013-08-23 08:45:00,
2013-08-23 09:50:00,57.8,57.2,29.93,WNW,291,0.0,0.0,98,0.00,BKN,,0.00,176.0,WeatherDisplay:10.37,2013-08-23 08:50:00,
2013-08-23 09:55:00,58.4,57.8,29.93,NW,306,1.0,3.0,98,0.00,BKN,,0.00,223.0,WeatherDisplay:10.37,2013-08-23 08:55:00,
2013-08-23 10:00:00,59.3,59.0,29.93,East,91,1.0,3.0,99,0.00,BKN,,0.00,267.0,WeatherDisplay:10.37,2013-08-23 09:00:00,
2013-08-23 10:05:00,60.5,60.2,29.92,East,98,1.0,5.0,99,0.00,SCT,,0.00,260.0,WeatherDisplay:10.37,2013-08-23 09:05:00,
2013-08-23 10:10:00,61.3,60.7,29.92,East,94,0.0,3.0,98,0.00,SCT,,0.00,278.0,WeatherDisplay:10.37,2013-08-23 09:10:00,
2013-08-23 10:15:00,61.7,61.1,29.92,SE,129,1.0,6.0,98,0.00,BKN,,0.00,271.0,WeatherDisplay:10.37,2013-08-23 09:15:00,
2013-08-23 10:20:00,62.0,61.5,29.92,South,191,0.0,3.0,98,0.00,BKN,,0.00,248.0,WeatherDisplay:10.37,2013-08-23 09:20:00,
2013-08-23 10:30:00,62.7,62.1,29.92,SSE,159,0.0,1.0,98,0.00,BKN,,0.00,213.0,WeatherDisplay:10.37,2013-08-23 09:30:00,
2013-08-23 10:35:00,63.0,62.4,29.92,SE,146,1.0,3.0,98,0.00,BKN,,0.00,255.0,WeatherDisplay:10.37,2013-08-23 09:35:00,
2013-08-23 10:40:00,63.0,62.4,29.92,SE,124,1.0,5.0,98,0.00,BKN,,0.00,225.0,WeatherDisplay:10.37,2013-08-23 09:40:00,
2013-08-23 10:45:00,63.1,62.5,29.91,East,100,1.0,3.0,98,0.00,BKN,,0.00,216.0,WeatherDisplay:10.37,2013-08-23 09:45:00,
2013-08-23 10:50:00,63.2,62.3,29.91,ENE,64,1.0,6.0,97,0.00,BKN,,0.00,207.0,WeatherDisplay:10.37,2013-08-23 09:50:00,
2013-08-23 10:55:00,63.4,62.2,29.91,ENE,60,1.0,4.0,96,0.00,BKN,,0.00,220.0,WeatherDisplay:10.37,2013-08-23 09:55:00,
2013-08-23 11:00:00,63.7,62.5,29.91,ESE,111,1.0,4.0,96,0.00,BKN,,0.00,244.0,WeatherDisplay:10.37,2013-08-23 10:00:00,
2013-08-23 11:05:00,63.9,62.4,29.91,SSE,147,2.0,5.0,95,0.00,BKN,,0.00,257.0,WeatherDisplay:10.37,2013-08-23 10:05:00,
2013-08-23 11:10:00,64.0,62.3,29.91,ESE,118,2.0,5.0,94,0.00,BKN,,0.00,271.0,WeatherDisplay:10.37,2013-08-23 10:10:00,
2013-08-23 11:15:00,64.2,62.1,29.91,East,95,1.0,7.0,93,0.00,BKN,,0.00,258.0,WeatherDisplay:10.37,2013-08-23 10:15:00,
2013-08-23 11:20:00,64.3,62.2,29.91,East,98,2.0,6.0,93,0.00,BKN,,0.00,262.0,WeatherDisplay:10.37,2013-08-23 10:20:00,
2013-08-23 11:30:00,64.7,62.3,29.91,SE,130,0.0,1.0,92,0.00,BKN,,0.00,258.0,WeatherDisplay:10.37,2013-08-23 10:30:00,
2013-08-23 11:35:00,65.0,62.3,29.90,South,189,0.0,1.0,91,0.00,BKN,,0.00,223.0,WeatherDisplay:10.37,2013-08-23 10:35:00,
2013-08-23 11:40:00,65.3,62.0,29.90,South,178,1.0,5.0,89,0.00,BKN,,0.00,199.0,WeatherDisplay:10.37,2013-08-23 10:40:00,
2013-08-23 11:50:00,65.8,61.8,29.90,SSE,151,1.0,6.0,87,0.00,BKN,,0.00,176.0,WeatherDisplay:10.37,2013-08-23 10:50:00,
2013-08-23 12:00:00,66.2,62.2,29.90,SE,133,2.0,7.0,87,0.00,BKN,,0.00,172.0,WeatherDisplay:10.37,2013-08-23 11:00:00,
2013-08-23 12:05:00,66.2,61.6,29.90,SSE,167,2.0,7.0,85,0.00,BKN,,0.00,174.0,WeatherDisplay:10.37,2013-08-23 11:05:00,
2013-08-23 12:10:00,66.4,61.7,29.90,SSW,193,1.0,8.0,85,0.00,BKN,,0.00,183.0,WeatherDisplay:10.37,2013-08-23 11:10:00,
2013-08-23 12:15:00,66.5,61.2,29.90,SSW,204,1.0,9.0,83,0.00,BKN,,0.00,186.0,WeatherDisplay:10.37,2013-08-23 11:15:00,
2013-08-23 12:20:00,66.7,61.3,29.90,South,187,1.0,8.0,83,0.00,BKN,,0.00,174.0,WeatherDisplay:10.37,2013-08-23 11:20:00,
2013-08-23 12:25:00,66.8,61.1,29.90,South,181,3.0,7.0,82,0.00,BKN,,0.00,190.0,WeatherDisplay:10.37,2013-08-23 11:25:00,
2013-08-23 12:30:00,67.0,61.3,29.90,South,189,2.0,7.0,82,0.00,BKN,,0.00,214.0,WeatherDisplay:10.37,2013-08-23 11:30:00,
2013-08-23 12:35:00,67.2,61.5,29.90,SSW,202,3.0,7.0,82,0.00,BKN,,0.00,202.0,WeatherDisplay:10.37,2013-08-23 11:35:00,
2013-08-23 12:40:00,67.3,61.7,29.90,SSW,205,3.0,8.0,82,0.00,BKN,,0.00,148.0,WeatherDisplay:10.37,2013-08-23 11:40:00,
2013-08-23 12:45:00,67.4,61.7,29.90,SSW,203,3.0,6.0,82,0.00,BKN,,0.00,132.0,WeatherDisplay:10.37,2013-08-23 11:45:00,
2013-08-23 12:50:00,67.5,61.8,29.90,SSW,194,2.0,6.0,82,0.00,BKN,,0.00,221.0,WeatherDisplay:10.37,2013-08-23 11:50:00,
2013-08-23 12:55:00,67.6,61.6,29.90,South,185,2.0,7.0,81,0.00,BKN,,0.00,167.0,WeatherDisplay:10.37,2013-08-23 11:55:00,
2013-08-23 13:00:00,67.7,61.7,29.90,South,190,3.0,7.0,81,0.00,BKN,,0.00,202.0,WeatherDisplay:10.37,2013-08-23 12:00:00,
2013-08-23 13:05:00,67.7,61.7,29.90,SSW,204,2.0,6.0,81,0.00,BKN,,0.00,171.0,WeatherDisplay:10.37,2013-08-23 12:05:00,
2013-08-23 13:10:00,67.8,61.4,29.90,SSW,203,5.0,12.0,80,0.00,BKN,,0.00,171.0,WeatherDisplay:10.37,2013-08-23 12:10:00,
2013-08-23 13:15:00,67.9,61.5,29.91,South,189,3.0,12.0,80,0.00,BKN,,0.00,162.0,WeatherDisplay:10.37,2013-08-23 12:15:00,
2013-08-23 13:20:00,67.8,61.0,29.90,SSW,198,6.0,10.0,79,0.00,BKN,,0.00,120.0,WeatherDisplay:10.37,2013-08-23 12:20:00,
2013-08-23 13:30:00,67.6,61.6,29.90,SW,224,3.0,8.0,81,0.00,BKN,,0.00,74.0,WeatherDisplay:10.37,2013-08-23 12:30:00,
2013-08-23 13:35:00,67.4,60.7,29.90,SW,215,5.0,8.0,79,0.00,BKN,,0.00,44.0,WeatherDisplay:10.37,2013-08-23 12:35:00,
2013-08-23 13:40:00,67.2,60.5,29.90,SSW,213,6.0,9.0,79,0.00,BKN,,0.00,65.0,WeatherDisplay:10.37,2013-08-23 12:40:00,
2013-08-23 13:45:00,67.0,61.0,29.90,SSW,206,1.0,8.0,81,0.00,BKN,,0.00,88.0,WeatherDisplay:10.37,2013-08-23 12:45:00,
2013-08-23 13:50:00,67.0,61.0,29.90,SSW,211,1.0,4.0,81,0.00,BKN,,0.00,130.0,WeatherDisplay:10.37,2013-08-23 12:50:00,
2013-08-23 13:55:00,67.0,61.0,29.90,SW,230,3.0,6.0,81,0.00,BKN,,0.00,193.0,WeatherDisplay:10.37,2013-08-23 12:55:00,
2013-08-23 14:00:00,67.1,61.4,29.90,SW,220,3.0,7.0,82,0.00,BKN,,0.00,216.0,WeatherDisplay:10.37,2013-08-23 13:00:00,
2013-08-23 14:05:00,67.2,61.2,29.90,SW,214,5.0,6.0,81,0.00,BKN,,0.00,193.0,WeatherDisplay:10.37,2013-08-23 13:05:00,
2013-08-23 14:10:00,67.4,61.4,29.90,SSW,203,2.0,6.0,81,0.00,BKN,,0.00,111.0,WeatherDisplay:10.37,2013-08-23 13:10:00,
2013-08-23 14:15:00,67.5,61.5,29.90,South,185,1.0,3.0,81,0.00,BKN,,0.00,93.0,WeatherDisplay:10.37,2013-08-23 13:15:00,
2013-08-23 14:20:00,67.6,61.9,29.90,South,185,1.0,4.0,82,0.00,BKN,,0.00,118.0,WeatherDisplay:10.37,2013-08-23 13:20:00,
2013-08-23 14:25:00,67.6,61.9,29.89,South,182,2.0,4.0,82,0.00,BKN,,0.00,125.0,WeatherDisplay:10.37,2013-08-23 13:25:00,
2013-08-23 14:30:00,67.6,62.3,29.89,South,191,1.0,7.0,83,0.00,BKN,,0.00,83.0,WeatherDisplay:10.37,2013-08-23 13:30:00,
2013-08-23 14:40:00,67.5,62.1,29.89,SSW,193,1.0,6.0,83,0.00,BKN,,0.00,91.0,WeatherDisplay:10.37,2013-08-23 13:40:00,
2013-08-23 14:45:00,67.4,62.4,29.89,SSW,198,0.0,5.0,84,0.00,BKN,,0.00,91.0,WeatherDisplay:10.37,2013-08-23 13:45:00,
2013-08-23 14:50:00,67.4,62.1,29.89,SSW,211,0.0,2.0,83,0.00,BKN,,0.00,97.0,WeatherDisplay:10.37,2013-08-23 13:50:00,
2013-08-23 14:55:00,67.4,62.4,29.89,SSW,209,1.0,4.0,84,0.00,BKN,,0.00,77.0,WeatherDisplay:10.37,2013-08-23 13:55:00,
2013-08-23 15:00:00,67.4,62.0,29.89,SSW,209,0.0,2.0,83,0.00,BKN,,0.00,67.0,WeatherDisplay:10.37,2013-08-23 14:00:00,
2013-08-23 15:05:00,67.3,62.0,29.89,SSW,209,0.0,4.0,83,0.00,BKN,,0.00,176.0,WeatherDisplay:10.37,2013-08-23 14:05:00,
2013-08-23 15:10:00,67.4,62.1,29.89,South,189,1.0,4.0,83,0.00,BKN,,0.00,216.0,WeatherDisplay:10.37,2013-08-23 14:10:00,
2013-08-23 15:15:00,67.5,62.2,29.89,SSW,211,3.0,6.0,83,0.00,BKN,,0.00,158.0,WeatherDisplay:10.37,2013-08-23 14:15:00,
2013-08-23 15:20:00,67.7,62.0,29.89,SSW,211,1.0,4.0,82,0.00,BKN,,0.00,178.0,WeatherDisplay:10.37,2013-08-23 14:20:00,
2013-08-23 15:25:00,67.9,62.2,29.89,South,191,1.0,3.0,82,0.00,BKN,,0.00,107.0,WeatherDisplay:10.37,2013-08-23 14:25:00,
2013-08-23 15:30:00,68.1,62.4,29.89,South,190,1.0,2.0,82,0.00,BKN,,0.00,137.0,WeatherDisplay:10.37,2013-08-23 14:30:00,
2013-08-23 15:35:00,68.1,62.1,29.88,SSW,202,5.0,7.0,81,0.00,BKN,,0.00,135.0,WeatherDisplay:10.37,2013-08-23 14:35:00,
2013-08-23 15:40:00,68.2,61.8,29.88,SSW,206,5.0,7.0,80,0.00,BKN,,0.00,74.0,WeatherDisplay:10.37,2013-08-23 14:40:00,
2013-08-23 15:45:00,68.0,60.9,29.89,SSW,211,7.0,12.0,78,0.00,BKN,,0.00,77.0,WeatherDisplay:10.37,2013-08-23 14:45:00,
2013-08-23 15:50:00,67.8,61.1,29.89,SSW,210,3.0,10.0,79,0.00,BKN,,0.00,132.0,WeatherDisplay:10.37,2013-08-23 14:50:00,
2013-08-23 15:55:00,67.7,61.3,29.88,SSW,206,3.0,9.0,80,0.00,BKN,,0.00,160.0,WeatherDisplay:10.37,2013-08-23 14:55:00,
2013-08-23 16:00:00,67.7,61.3,29.88,SSW,204,3.0,8.0,80,0.00,BKN,,0.00,162.0,WeatherDisplay:10.37,2013-08-23 15:00:00,
2013-08-23 16:05:00,67.7,61.3,29.88,SSW,207,5.0,13.0,80,0.00,BKN,,0.00,156.0,WeatherDisplay:10.37,2013-08-23 15:05:00,
2013-08-23 16:10:00,67.6,61.2,29.88,SW,215,6.0,8.0,80,0.00,BKN,,0.00,148.0,WeatherDisplay:10.37,2013-08-23 15:10:00,
2013-08-23 16:15:00,67.5,61.1,29.88,SSW,213,2.0,10.0,80,0.00,BKN,,0.00,141.0,WeatherDisplay:10.37,2013-08-23 15:15:00,
2013-08-23 16:20:00,67.4,61.4,29.88,SSW,207,7.0,10.0,81,0.00,BKN,,0.00,142.0,WeatherDisplay:10.37,2013-08-23 15:20:00,
2013-08-23 16:25:00,67.3,61.3,29.88,SSW,201,2.0,9.0,81,0.00,BKN,,0.00,160.0,WeatherDisplay:10.37,2013-08-23 15:25:00,
2013-08-23 16:30:00,67.4,61.7,29.88,SSW,207,1.0,5.0,82,0.00,BKN,,0.00,162.0,WeatherDisplay:10.37,2013-08-23 15:30:00,
2013-08-23 16:35:00,67.4,61.7,29.88,South,186,5.0,7.0,82,0.00,BKN,,0.00,153.0,WeatherDisplay:10.37,2013-08-23 15:35:00,
2013-08-23 16:40:00,67.4,61.4,29.88,South,190,6.0,12.0,81,0.00,BKN,,0.00,139.0,WeatherDisplay:10.37,2013-08-23 15:40:00,
2013-08-23 16:45:00,67.3,61.3,29.88,SSW,194,3.0,7.0,81,0.00,BKN,,0.00,146.0,WeatherDisplay:10.37,2013-08-23 15:45:00,
2013-08-23 16:50:00,67.3,61.3,29.88,SSW,202,2.0,12.0,81,0.00,BKN,,0.00,156.0,WeatherDisplay:10.37,2013-08-23 15:50:00,
2013-08-23 17:00:00,67.3,60.9,29.88,SSW,194,5.0,10.0,80,0.00,BKN,,0.00,153.0,WeatherDisplay:10.37,2013-08-23 16:00:00,
2013-08-23 17:05:00,67.1,61.1,29.88,SSW,195,3.0,9.0,81,0.00,BKN,,0.00,151.0,WeatherDisplay:10.37,2013-08-23 16:05:00,
2013-08-23 17:10:00,67.0,61.0,29.88,SSW,197,5.0,7.0,81,0.00,BKN,,0.00,141.0,WeatherDisplay:10.37,2013-08-23 16:10:00,
2013-08-23 17:15:00,66.9,60.9,29.88,SSW,195,6.0,9.0,81,0.00,BKN,,0.00,125.0,WeatherDisplay:10.37,2013-08-23 16:15:00,
2013-08-23 17:20:00,66.8,60.8,29.88,SSW,193,3.0,10.0,81,0.00,BKN,,0.00,114.0,WeatherDisplay:10.37,2013-08-23 16:20:00,
2013-08-23 17:30:00,66.7,61.0,29.88,SSW,193,3.0,8.0,82,0.00,BKN,,0.00,62.0,WeatherDisplay:10.37,2013-08-23 16:30:00,
2013-08-23 17:35:00,66.6,60.9,29.87,South,186,2.0,8.0,82,0.00,BKN,,0.00,46.0,WeatherDisplay:10.37,2013-08-23 16:35:00,
2013-08-23 17:40:00,66.5,60.8,29.87,South,188,1.0,7.0,82,0.00,BKN,,0.00,35.0,WeatherDisplay:10.37,2013-08-23 16:40:00,
2013-08-23 17:50:00,66.1,60.5,29.88,SSW,198,1.0,7.0,82,0.00,BKN,,0.00,53.0,WeatherDisplay:10.37,2013-08-23 16:50:00,
2013-08-23 17:55:00,66.0,60.7,29.87,South,191,5.0,7.0,83,0.00,BKN,,0.00,69.0,WeatherDisplay:10.37,2013-08-23 16:55:00,
2013-08-23 18:00:00,65.9,60.6,29.88,SSW,198,2.0,7.0,83,0.00,BKN,,0.00,62.0,WeatherDisplay:10.37,2013-08-23 17:00:00,
2013-08-23 18:05:00,65.8,60.5,29.88,SSW,197,3.0,6.0,83,0.00,BKN,,0.00,35.0,WeatherDisplay:10.37,2013-08-23 17:05:00,
2013-08-23 18:10:00,65.7,60.4,29.88,SSW,193,3.0,7.0,83,0.00,BKN,,0.00,28.0,WeatherDisplay:10.37,2013-08-23 17:10:00,
2013-08-23 18:15:00,65.6,60.3,29.88,SSW,206,1.0,7.0,83,0.00,BKN,,0.00,33.0,WeatherDisplay:10.37,2013-08-23 17:15:00,
2013-08-23 18:20:00,65.5,60.5,29.88,SW,217,1.0,4.0,84,0.00,BKN,,0.00,39.0,WeatherDisplay:10.37,2013-08-23 17:20:00,
2013-08-23 18:25:00,65.4,60.4,29.88,SSW,213,2.0,6.0,84,0.00,BKN,,0.00,40.0,WeatherDisplay:10.37,2013-08-23 17:25:00,
2013-08-23 18:30:00,65.3,60.3,29.88,SW,217,1.0,4.0,84,0.00,BKN,,0.00,35.0,WeatherDisplay:10.37,2013-08-23 17:30:00,
2013-08-23 18:35:00,65.2,60.3,29.88,SW,223,1.0,3.0,84,0.00,BKN,,0.00,28.0,WeatherDisplay:10.37,2013-08-23 17:35:00,
2013-08-23 18:40:00,65.2,60.2,29.88,SW,216,6.0,7.0,84,0.00,BKN,,0.00,25.0,WeatherDisplay:10.37,2013-08-23 17:40:00,
2013-08-23 18:45:00,65.0,60.0,29.88,SSW,211,2.0,6.0,84,0.00,BKN,,0.00,19.0,WeatherDisplay:10.37,2013-08-23 17:45:00,
2013-08-23 18:50:00,64.9,60.0,29.88,SSW,201,2.0,5.0,84,0.00,BKN,,0.00,19.0,WeatherDisplay:10.37,2013-08-23 17:50:00,
2013-08-23 18:55:00,64.8,59.9,29.88,SSW,195,1.0,6.0,84,0.00,BKN,,0.00,19.0,WeatherDisplay:10.37,2013-08-23 17:55:00,
2013-08-23 19:00:00,64.7,59.8,29.88,SSW,208,3.0,7.0,84,0.00,BKN,,0.00,18.0,WeatherDisplay:10.37,2013-08-23 18:00:00,
2013-08-23 19:05:00,64.6,59.7,29.88,SSW,213,5.0,7.0,84,0.00,BKN,,0.00,14.0,WeatherDisplay:10.37,2013-08-23 18:05:00,
2013-08-23 19:10:00,64.5,59.6,29.88,SW,215,2.0,7.0,84,0.00,BKN,,0.00,14.0,WeatherDisplay:10.37,2013-08-23 18:10:00,
2013-08-23 19:15:00,64.4,59.5,29.88,SW,222,3.0,7.0,84,0.00,BKN,,0.00,16.0,WeatherDisplay:10.37,2013-08-23 18:15:00,
2013-08-23 19:20:00,64.3,59.4,29.88,SW,215,2.0,5.0,84,0.00,BKN,,0.00,16.0,WeatherDisplay:10.37,2013-08-23 18:20:00,
2013-08-23 19:25:00,64.3,59.7,29.88,SSW,211,2.0,5.0,85,0.00,BKN,,0.00,19.0,WeatherDisplay:10.37,2013-08-23 18:25:00,
2013-08-23 19:30:00,64.2,59.6,29.89,SW,218,0.0,4.0,85,0.00,BKN,,0.00,21.0,WeatherDisplay:10.37,2013-08-23 18:30:00,
2013-08-23 19:35:00,64.1,59.5,29.89,SSW,211,1.0,3.0,85,0.00,BKN,,0.00,19.0,WeatherDisplay:10.37,2013-08-23 18:35:00,
2013-08-23 19:40:00,64.0,59.4,29.89,South,186,2.0,7.0,85,0.00,BKN,,0.00,18.0,WeatherDisplay:10.37,2013-08-23 18:40:00,
2013-08-23 19:45:00,63.8,59.2,29.89,South,189,5.0,7.0,85,0.00,BKN,,0.00,16.0,WeatherDisplay:10.37,2013-08-23 18:45:00,
2013-08-23 19:50:00,63.8,59.2,29.88,SSW,197,2.0,7.0,85,0.00,BKN,,0.00,14.0,WeatherDisplay:10.37,2013-08-23 18:50:00,
2013-08-23 19:55:00,63.7,59.1,29.88,SSW,200,3.0,7.0,85,0.00,BKN,,0.00,11.0,WeatherDisplay:10.37,2013-08-23 18:55:00,
2013-08-23 20:00:00,63.6,59.3,29.89,SSW,204,0.0,2.0,86,0.00,BKN,,0.00,7.0,WeatherDisplay:10.37,2013-08-23 19:00:00,
2013-08-23 20:05:00,63.5,59.2,29.89,SSW,198,0.0,5.0,86,0.00,OVC,,0.00,0.0,WeatherDisplay:10.37,2013-08-23 19:05:00,
2013-08-23 20:10:00,63.4,59.1,29.88,South,184,0.0,1.0,86,0.00,OVC,,0.00,0.0,WeatherDisplay:10.37,2013-08-23 19:10:00,
2013-08-23 20:15:00,63.2,58.9,29.89,South,183,0.0,2.0,86,0.00,OVC,,0.00,0.0,WeatherDisplay:10.37,2013-08-23 19:15:00,
2013-08-23 20:20:00,63.1,58.8,29.89,South,184,2.0,3.0,86,0.00,OVC,,0.00,0.0,WeatherDisplay:10.37,2013-08-23 19:20:00,
2013-08-23 20:25:00,62.9,59.0,29.89,South,184,2.0,3.0,87,0.00,OVC,,0.00,0.0,WeatherDisplay:10.37,2013-08-23 19:25:00,
2013-08-23 20:30:00,62.7,58.8,29.89,South,184,0.0,2.0,87,0.00,OVC,,0.00,0.0,WeatherDisplay:10.37,2013-08-23 19:30:00,
2013-08-23 20:35:00,62.6,58.6,29.90,South,184,0.0,1.0,87,0.00,OVC,,0.00,0.0,WeatherDisplay:10.37,2013-08-23 19:35:00,
2013-08-23 20:40:00,62.3,58.4,29.90,South,184,0.0,1.0,87,0.00,OVC,,0.00,0.0,WeatherDisplay:10.37,2013-08-23 19:40:00,
2013-08-23 20:45:00,62.1,58.2,29.90,South,184,1.0,2.0,87,0.00,OVC,,0.00,0.0,WeatherDisplay:10.37,2013-08-23 19:45:00,
2013-08-23 20:50:00,61.8,57.9,29.90,South,184,0.0,2.0,87,0.00,OVC,,0.00,0.0,WeatherDisplay:10.37,2013-08-23 19:50:00,
2013-08-23 20:55:00,61.5,57.9,29.90,South,184,0.0,0.0,88,0.00,OVC,,0.00,0.0,WeatherDisplay:10.37,2013-08-23 19:55:00,
2013-08-23 21:00:00,61.2,57.3,29.90,South,184,0.0,0.0,87,0.00,CLR,,0.00,0.0,WeatherDisplay:10.37,2013-08-23 20:00:00,
2013-08-23 21:05:00,60.9,57.3,29.90,South,184,0.0,1.0,88,0.00,CLR,,0.00,0.0,WeatherDisplay:10.37,2013-08-23 20:05:00,
2013-08-23 21:10:00,60.5,57.0,29.90,South,184,0.0,0.0,88,0.00,CLR,,0.00,0.0,WeatherDisplay:10.37,2013-08-23 20:10:00,
2013-08-23 21:15:00,60.2,56.7,29.90,South,184,0.0,2.0,88,0.00,CLR,,0.00,0.0,WeatherDisplay:10.37,2013-08-23 20:15:00,
2013-08-23 21:20:00,60.0,56.4,29.90,South,184,0.0,1.0,88,0.00,CLR,,0.00,0.0,WeatherDisplay:10.37,2013-08-23 20:20:00,
2013-08-23 21:25:00,59.7,56.5,29.90,South,184,0.0,1.0,89,0.00,CLR,,0.00,0.0,WeatherDisplay:10.37,2013-08-23 20:25:00,
2013-08-23 21:30:00,59.5,56.3,29.90,South,184,1.0,2.0,89,0.00,CLR,,0.00,0.0,WeatherDisplay:10.37,2013-08-23 20:30:00,
2013-08-23 21:35:00,59.3,56.1,29.90,South,184,0.0,1.0,89,0.00,CLR,,0.00,0.0,WeatherDisplay:10.37,2013-08-23 20:35:00,
2013-08-23 21:40:00,59.1,55.9,29.90,South,180,1.0,2.0,89,0.00,CLR,,0.00,0.0,WeatherDisplay:10.37,2013-08-23 20:40:00,
2013-08-23 21:50:00,58.7,55.8,29.90,South,178,0.0,1.0,90,0.00,CLR,,0.00,0.0,WeatherDisplay:10.37,2013-08-23 20:50:00,
2013-08-23 21:55:00,58.6,55.7,29.90,South,178,0.0,1.0,90,0.00,CLR,,0.00,0.0,WeatherDisplay:10.37,2013-08-23 20:55:00,
2013-08-23 22:00:00,58.4,55.5,29.90,South,178,0.0,1.0,90,0.00,CLR,,0.00,0.0,WeatherDisplay:10.37,2013-08-23 21:00:00,
2013-08-23 22:05:00,58.2,55.3,29.90,South,178,0.0,1.0,90,0.00,CLR,,0.00,0.0,WeatherDisplay:10.37,2013-08-23 21:05:00,
2013-08-23 22:10:00,58.0,55.1,29.90,South,178,0.0,1.0,90,0.00,CLR,,0.00,0.0,WeatherDisplay:10.37,2013-08-23 21:10:00,
2013-08-23 22:15:00,57.9,55.0,29.91,South,178,0.0,1.0,90,0.00,CLR,,0.00,0.0,WeatherDisplay:10.37,2013-08-23 21:15:00,
2013-08-23 22:20:00,57.8,54.9,29.91,South,178,0.0,1.0,90,0.00,CLR,,0.00,0.0,WeatherDisplay:10.37,2013-08-23 21:20:00,
2013-08-23 22:25:00,57.7,54.8,29.91,South,178,0.0,1.0,90,0.00,CLR,,0.00,0.0,WeatherDisplay:10.37,2013-08-23 21:25:00,
2013-08-23 22:30:00,57.5,54.9,29.91,South,178,0.0,1.0,91,0.00,CLR,,0.00,0.0,WeatherDisplay:10.37,2013-08-23 21:30:00,
2013-08-23 22:35:00,57.5,54.9,29.91,South,178,0.0,1.0,91,0.00,CLR,,0.00,0.0,WeatherDisplay:10.37,2013-08-23 21:35:00,
2013-08-23 22:40:00,57.4,54.8,29.91,South,178,0.0,1.0,91,0.00,CLR,,0.00,0.0,WeatherDisplay:10.37,2013-08-23 21:40:00,
2013-08-23 22:45:00,57.3,54.7,29.91,South,178,0.0,1.0,91,0.00,CLR,,0.00,0.0,WeatherDisplay:10.37,2013-08-23 21:45:00,
2013-08-23 22:50:00,57.2,54.6,29.90,South,178,0.0,1.0,91,0.00,CLR,,0.00,0.0,WeatherDisplay:10.37,2013-08-23 21:50:00,
2013-08-23 22:55:00,57.1,54.5,29.90,South,178,0.0,1.0,91,0.00,CLR,,0.00,0.0,WeatherDisplay:10.37,2013-08-23 21:55:00,
2013-08-23 23:00:00,57.0,54.4,29.90,South,178,0.0,1.0,91,0.00,CLR,,0.00,0.0,WeatherDisplay:10.37,2013-08-23 22:00:00,
2013-08-23 23:05:00,56.9,54.3,29.90,South,178,0.0,0.0,91,0.00,CLR,,0.00,0.0,WeatherDisplay:10.37,2013-08-23 22:05:00,
2013-08-23 23:10:00,56.8,54.5,29.90,South,178,0.0,1.0,92,0.00,CLR,,0.00,0.0,WeatherDisplay:10.37,2013-08-23 22:10:00,
2013-08-23 23:15:00,56.8,54.5,29.90,South,178,0.0,1.0,92,0.00,CLR,,0.00,0.0,WeatherDisplay:10.37,2013-08-23 22:15:00,
2013-08-23 23:20:00,56.7,54.1,29.90,South,178,0.0,1.0,91,0.00,CLR,,0.00,0.0,WeatherDisplay:10.37,2013-08-23 22:20:00,
2013-08-23 23:25:00,56.6,54.3,29.90,South,178,0.0,1.0,92,0.00,CLR,,0.00,0.0,WeatherDisplay:10.37,2013-08-23 22:25:00,
2013-08-23 23:30:00,56.6,54.3,29.91,South,178,0.0,0.0,92,0.00,CLR,,0.00,0.0,WeatherDisplay:10.37,2013-08-23 22:30:00,
2013-08-23 23:35:00,56.5,54.2,29.90,South,178,0.0,2.0,92,0.00,CLR,,0.00,0.0,WeatherDisplay:10.37,2013-08-23 22:35:00,
2013-08-23 23:40:00,56.4,54.1,29.91,South,178,0.0,1.0,92,0.00,CLR,,0.00,0.0,WeatherDisplay:10.37,2013-08-23 22:40:00,
2013-08-23 23:45:00,56.4,54.1,29.91,South,178,0.0,1.0,92,0.00,CLR,,0.00,0.0,WeatherDisplay:10.37,2013-08-23 22:45:00,
2013-08-23 23:50:00,56.3,54.0,29.91,South,178,0.0,2.0,92,0.00,CLR,,0.00,0.0,WeatherDisplay:10.37,2013-08-23 22:50:00,
2013-08-23 23:55:00,56.2,53.9,29.91,South,178,1.0,2.0,92,0.00,CLR,,0.00,0.0,WeatherDisplay:10.37,2013-08-23 22:55:00,